sensor_id;sensor_type;location;lat;lon;timestamp;temperature;humidity
35277;DHT22;21401;50.878;8.050;2022-11-20T00:01:24;0.00;99.90
35277;DHT22;21401;50.878;8.050;2022-11-20T00:03:51;0.00;99.90
35277;DHT22;21401;50.878;8.050;2022-11-20T00:06:19;0.00;99.90
35277;DHT22;21401;50.878;8.050;2022-11-20T00:08:45;0.00;99.90
35277;DHT22;21401;50.878;8.050;2022-11-20T00:11:22;0.10;99.90
35277;DHT22;21401;50.878;8.050;2022-11-20T00:13:52;0.10;99.90
35277;DHT22;21401;50.878;8.050;2022-11-20T00:16:20;0.20;99.90
35277;DHT22;21401;50.878;8.050;2022-11-20T00:18:46;0.10;99.90
35277;DHT22;21401;50.878;8.050;2022-11-20T00:21:18;0.10;99.90
35277;DHT22;21401;50.878;8.050;2022-11-20T00:23:44;0.10;99.90
35277;DHT22;21401;50.878;8.050;2022-11-20T00:26:12;0.00;99.90
35277;DHT22;21401;50.878;8.050;2022-11-20T00:28:38;-0.10;99.90
35277;DHT22;21401;50.878;8.050;2022-11-20T00:31:16;0.00;99.90
35277;DHT22;21401;50.878;8.050;2022-11-20T00:33:42;0.10;99.90
35277;DHT22;21401;50.878;8.050;2022-11-20T00:36:11;0.30;99.90
35277;DHT22;21401;50.878;8.050;2022-11-20T00:38:37;0.10;99.90
35277;DHT22;21401;50.878;8.050;2022-11-20T00:41:05;0.20;99.90
35277;DHT22;21401;50.878;8.050;2022-11-20T00:43:32;0.20;99.90
35277;DHT22;21401;50.878;8.050;2022-11-20T00:46:02;0.00;99.90
35277;DHT22;21401;50.878;8.050;2022-11-20T00:48:30;0.10;99.90
35277;DHT22;21401;50.878;8.050;2022-11-20T00:50:58;0.10;99.90
35277;DHT22;21401;50.878;8.050;2022-11-20T00:53:25;0.10;99.90
35277;DHT22;21401;50.878;8.050;2022-11-20T00:55:59;0.10;99.90
35277;DHT22;21401;50.878;8.050;2022-11-20T00:58:30;0.30;99.90
35277;DHT22;21401;50.878;8.050;2022-11-20T01:01:02;0.20;99.90
35277;DHT22;21401;50.878;8.050;2022-11-20T01:03:31;0.20;99.90
35277;DHT22;21401;50.878;8.050;2022-11-20T01:06:03;0.30;99.90
35277;DHT22;21401;50.878;8.050;2022-11-20T01:08:34;0.30;99.90
35277;DHT22;21401;50.878;8.050;2022-11-20T01:11:04;0.30;99.90
35277;DHT22;21401;50.878;8.050;2022-11-20T01:13:31;0.30;99.90
35277;DHT22;21401;50.878;8.050;2022-11-20T01:18:37;0.30;99.90
35277;DHT22;21401;50.878;8.050;2022-11-20T01:21:05;0.40;99.90
35277;DHT22;21401;50.878;8.050;2022-11-20T01:23:33;0.40;99.90
35277;DHT22;21401;50.878;8.050;2022-11-20T01:26:06;0.40;99.90
35277;DHT22;21401;50.878;8.050;2022-11-20T01:28:34;0.40;99.90
35277;DHT22;21401;50.878;8.050;2022-11-20T01:31:00;0.40;99.90
35277;DHT22;21401;50.878;8.050;2022-11-20T01:33:26;0.50;99.90
35277;DHT22;21401;50.878;8.050;2022-11-20T01:35:52;0.40;99.90
35277;DHT22;21401;50.878;8.050;2022-11-20T01:38:18;0.40;99.90
35277;DHT22;21401;50.878;8.050;2022-11-20T01:40:45;0.50;99.90
35277;DHT22;21401;50.878;8.050;2022-11-20T01:43:19;0.50;99.90
35277;DHT22;21401;50.878;8.050;2022-11-20T01:49:10;0.60;99.90
35277;DHT22;21401;50.878;8.050;2022-11-20T01:51:46;0.50;99.90
35277;DHT22;21401;50.878;8.050;2022-11-20T01:54:23;0.40;99.90
35277;DHT22;21401;50.878;8.050;2022-11-20T01:56:52;0.50;99.90
35277;DHT22;21401;50.878;8.050;2022-11-20T01:59:23;0.50;99.90
35277;DHT22;21401;50.878;8.050;2022-11-20T02:01:49;0.50;99.90
35277;DHT22;21401;50.878;8.050;2022-11-20T02:04:18;0.50;99.90
35277;DHT22;21401;50.878;8.050;2022-11-20T02:06:48;0.50;99.90
35277;DHT22;21401;50.878;8.050;2022-11-20T02:09:16;0.50;99.90
35277;DHT22;21401;50.878;8.050;2022-11-20T02:11:41;0.60;99.90
35277;DHT22;21401;50.878;8.050;2022-11-20T02:14:07;0.60;99.90
35277;DHT22;21401;50.878;8.050;2022-11-20T02:16:39;0.60;99.90
35277;DHT22;21401;50.878;8.050;2022-11-20T02:19:13;0.50;99.90
35277;DHT22;21401;50.878;8.050;2022-11-20T02:22:19;0.60;99.90
35277;DHT22;21401;50.878;8.050;2022-11-20T02:24:48;0.60;99.90
35277;DHT22;21401;50.878;8.050;2022-11-20T02:27:16;0.60;99.90
35277;DHT22;21401;50.878;8.050;2022-11-20T02:30:00;0.70;99.90
35277;DHT22;21401;50.878;8.050;2022-11-20T02:32:29;0.70;99.90
35277;DHT22;21401;50.878;8.050;2022-11-20T02:34:55;0.70;99.90
35277;DHT22;21401;50.878;8.050;2022-11-20T02:37:21;0.60;99.90
35277;DHT22;21401;50.878;8.050;2022-11-20T02:39:50;0.60;99.90
35277;DHT22;21401;50.878;8.050;2022-11-20T02:42:17;0.60;99.90
35277;DHT22;21401;50.878;8.050;2022-11-20T02:44:42;0.70;99.90
35277;DHT22;21401;50.878;8.050;2022-11-20T02:47:08;0.70;99.90
35277;DHT22;21401;50.878;8.050;2022-11-20T02:49:34;0.60;99.90
35277;DHT22;21401;50.878;8.050;2022-11-20T02:52:00;0.70;99.90
35277;DHT22;21401;50.878;8.050;2022-11-20T02:54:28;0.50;99.90
35277;DHT22;21401;50.878;8.050;2022-11-20T02:56:53;0.60;99.90
35277;DHT22;21401;50.878;8.050;2022-11-20T02:59:19;0.60;99.90
35277;DHT22;21401;50.878;8.050;2022-11-20T03:01:44;0.70;99.90
35277;DHT22;21401;50.878;8.050;2022-11-20T03:04:10;0.50;99.90
35277;DHT22;21401;50.878;8.050;2022-11-20T03:06:38;0.60;99.90
35277;DHT22;21401;50.878;8.050;2022-11-20T03:09:03;0.70;99.90
35277;DHT22;21401;50.878;8.050;2022-11-20T03:11:29;0.70;99.90
35277;DHT22;21401;50.878;8.050;2022-11-20T03:13:54;0.70;99.90
35277;DHT22;21401;50.878;8.050;2022-11-20T03:16:22;0.70;99.90
35277;DHT22;21401;50.878;8.050;2022-11-20T03:18:52;0.70;99.90
35277;DHT22;21401;50.878;8.050;2022-11-20T03:21:20;0.70;99.90
35277;DHT22;21401;50.878;8.050;2022-11-20T03:23:46;0.80;99.90
35277;DHT22;21401;50.878;8.050;2022-11-20T03:26:13;0.80;99.90
35277;DHT22;21401;50.878;8.050;2022-11-20T03:28:39;0.80;99.90
35277;DHT22;21401;50.878;8.050;2022-11-20T03:31:16;0.70;99.90
35277;DHT22;21401;50.878;8.050;2022-11-20T03:33:42;0.70;99.90
35277;DHT22;21401;50.878;8.050;2022-11-20T03:36:10;0.70;99.90
35277;DHT22;21401;50.878;8.050;2022-11-20T03:38:36;0.70;99.90
35277;DHT22;21401;50.878;8.050;2022-11-20T03:41:11;0.70;99.90
35277;DHT22;21401;50.878;8.050;2022-11-20T03:43:37;0.70;99.90
35277;DHT22;21401;50.878;8.050;2022-11-20T03:46:03;0.70;99.90
35277;DHT22;21401;50.878;8.050;2022-11-20T03:48:29;0.70;99.90
35277;DHT22;21401;50.878;8.050;2022-11-20T03:51:17;0.80;99.90
35277;DHT22;21401;50.878;8.050;2022-11-20T03:53:45;0.80;99.90
35277;DHT22;21401;50.878;8.050;2022-11-20T03:56:11;0.80;99.90
35277;DHT22;21401;50.878;8.050;2022-11-20T03:58:40;0.90;99.90
35277;DHT22;21401;50.878;8.050;2022-11-20T04:03:36;0.80;99.90
35277;DHT22;21401;50.878;8.050;2022-11-20T04:08:36;0.80;99.90
35277;DHT22;21401;50.878;8.050;2022-11-20T04:11:15;0.70;99.90
35277;DHT22;21401;50.878;8.050;2022-11-20T04:13:42;0.80;99.90
35277;DHT22;21401;50.878;8.050;2022-11-20T04:16:09;0.60;99.90
35277;DHT22;21401;50.878;8.050;2022-11-20T04:18:35;0.40;99.90
35277;DHT22;21401;50.878;8.050;2022-11-20T04:21:01;0.30;99.90
35277;DHT22;21401;50.878;8.050;2022-11-20T04:23:27;0.40;99.90
35277;DHT22;21401;50.878;8.050;2022-11-20T04:25:53;0.40;99.90
35277;DHT22;21401;50.878;8.050;2022-11-20T04:28:19;0.40;99.90
35277;DHT22;21401;50.878;8.050;2022-11-20T04:30:45;0.30;99.90
35277;DHT22;21401;50.878;8.050;2022-11-20T04:33:13;0.40;99.90
35277;DHT22;21401;50.878;8.050;2022-11-20T04:35:38;0.60;99.90
35277;DHT22;21401;50.878;8.050;2022-11-20T04:38:04;0.60;99.90
35277;DHT22;21401;50.878;8.050;2022-11-20T04:40:30;0.70;99.90
35277;DHT22;21401;50.878;8.050;2022-11-20T04:42:56;0.80;99.90
35277;DHT22;21401;50.878;8.050;2022-11-20T04:45:24;0.80;99.90
35277;DHT22;21401;50.878;8.050;2022-11-20T04:47:50;0.70;99.90
35277;DHT22;21401;50.878;8.050;2022-11-20T04:50:15;0.80;99.90
35277;DHT22;21401;50.878;8.050;2022-11-20T04:52:43;0.80;99.90
35277;DHT22;21401;50.878;8.050;2022-11-20T04:55:09;0.70;99.90
35277;DHT22;21401;50.878;8.050;2022-11-20T04:57:34;0.80;99.90
35277;DHT22;21401;50.878;8.050;2022-11-20T05:00:00;0.70;99.90
35277;DHT22;21401;50.878;8.050;2022-11-20T05:02:27;0.80;99.90
35277;DHT22;21401;50.878;8.050;2022-11-20T05:04:53;0.80;99.90
35277;DHT22;21401;50.878;8.050;2022-11-20T05:07:18;0.80;99.90
35277;DHT22;21401;50.878;8.050;2022-11-20T05:09:44;0.80;99.90
35277;DHT22;21401;50.878;8.050;2022-11-20T05:12:10;0.80;99.90
35277;DHT22;21401;50.878;8.050;2022-11-20T05:14:37;0.80;99.90
35277;DHT22;21401;50.878;8.050;2022-11-20T05:17:05;0.80;99.90
35277;DHT22;21401;50.878;8.050;2022-11-20T05:19:31;0.80;99.90
35277;DHT22;21401;50.878;8.050;2022-11-20T05:21:57;0.70;99.90
35277;DHT22;21401;50.878;8.050;2022-11-20T05:24:22;0.80;99.90
35277;DHT22;21401;50.878;8.050;2022-11-20T05:26:50;0.80;99.90
35277;DHT22;21401;50.878;8.050;2022-11-20T05:29:15;0.80;99.90
35277;DHT22;21401;50.878;8.050;2022-11-20T05:31:41;0.90;99.90
35277;DHT22;21401;50.878;8.050;2022-11-20T05:34:07;0.80;99.90
35277;DHT22;21401;50.878;8.050;2022-11-20T05:36:33;0.80;99.90
35277;DHT22;21401;50.878;8.050;2022-11-20T05:38:59;0.80;99.90
35277;DHT22;21401;50.878;8.050;2022-11-20T05:41:25;0.70;99.90
35277;DHT22;21401;50.878;8.050;2022-11-20T05:43:51;0.70;99.90
35277;DHT22;21401;50.878;8.050;2022-11-20T05:46:19;0.70;99.90
35277;DHT22;21401;50.878;8.050;2022-11-20T05:48:46;0.90;99.90
35277;DHT22;21401;50.878;8.050;2022-11-20T05:51:14;0.90;99.90
35277;DHT22;21401;50.878;8.050;2022-11-20T05:53:43;0.80;99.90
35277;DHT22;21401;50.878;8.050;2022-11-20T05:56:11;0.90;99.90
35277;DHT22;21401;50.878;8.050;2022-11-20T05:58:39;1.00;99.90
35277;DHT22;21401;50.878;8.050;2022-11-20T06:01:13;1.00;99.90
35277;DHT22;21401;50.878;8.050;2022-11-20T06:03:42;1.10;99.90
35277;DHT22;21401;50.878;8.050;2022-11-20T06:06:11;1.00;99.90
35277;DHT22;21401;50.878;8.050;2022-11-20T06:08:36;1.00;99.90
35277;DHT22;21401;50.878;8.050;2022-11-20T06:11:09;0.80;99.90
35277;DHT22;21401;50.878;8.050;2022-11-20T06:13:35;0.80;99.90
35277;DHT22;21401;50.878;8.050;2022-11-20T06:16:02;0.90;99.90
35277;DHT22;21401;50.878;8.050;2022-11-20T06:18:30;0.90;99.90
35277;DHT22;21401;50.878;8.050;2022-11-20T06:21:06;1.00;99.90
35277;DHT22;21401;50.878;8.050;2022-11-20T06:23:33;1.00;99.90
35277;DHT22;21401;50.878;8.050;2022-11-20T06:26:04;1.00;99.90
35277;DHT22;21401;50.878;8.050;2022-11-20T06:28:30;0.90;99.90
35277;DHT22;21401;50.878;8.050;2022-11-20T06:30:55;0.80;99.90
35277;DHT22;21401;50.878;8.050;2022-11-20T06:33:21;0.80;99.90
35277;DHT22;21401;50.878;8.050;2022-11-20T06:35:47;0.80;99.90
35277;DHT22;21401;50.878;8.050;2022-11-20T06:38:13;0.80;99.90
35277;DHT22;21401;50.878;8.050;2022-11-20T06:40:42;0.70;99.90
35277;DHT22;21401;50.878;8.050;2022-11-20T06:43:09;0.70;99.90
35277;DHT22;21401;50.878;8.050;2022-11-20T06:45:35;0.60;99.90
35277;DHT22;21401;50.878;8.050;2022-11-20T06:48:01;0.70;99.90
35277;DHT22;21401;50.878;8.050;2022-11-20T06:50:29;0.70;99.90
35277;DHT22;21401;50.878;8.050;2022-11-20T06:52:55;0.70;99.90
35277;DHT22;21401;50.878;8.050;2022-11-20T06:55:20;0.70;99.90
35277;DHT22;21401;50.878;8.050;2022-11-20T06:57:46;0.60;99.90
35277;DHT22;21401;50.878;8.050;2022-11-20T07:00:12;0.80;99.90
35277;DHT22;21401;50.878;8.050;2022-11-20T07:02:38;0.80;99.90
35277;DHT22;21401;50.878;8.050;2022-11-20T07:05:04;0.70;99.90
35277;DHT22;21401;50.878;8.050;2022-11-20T07:07:30;0.70;99.90
35277;DHT22;21401;50.878;8.050;2022-11-20T07:09:56;0.70;99.90
35277;DHT22;21401;50.878;8.050;2022-11-20T07:12:21;0.70;99.90
35277;DHT22;21401;50.878;8.050;2022-11-20T07:14:52;0.80;99.90
35277;DHT22;21401;50.878;8.050;2022-11-20T07:17:20;0.80;99.90
35277;DHT22;21401;50.878;8.050;2022-11-20T07:19:46;0.80;99.90
35277;DHT22;21401;50.878;8.050;2022-11-20T07:22:12;0.80;99.90
35277;DHT22;21401;50.878;8.050;2022-11-20T07:24:38;0.80;99.90
35277;DHT22;21401;50.878;8.050;2022-11-20T07:27:04;0.80;99.90
35277;DHT22;21401;50.878;8.050;2022-11-20T07:29:30;0.80;99.90
35277;DHT22;21401;50.878;8.050;2022-11-20T07:31:59;0.80;99.90
35277;DHT22;21401;50.878;8.050;2022-11-20T07:34:25;0.80;99.90
35277;DHT22;21401;50.878;8.050;2022-11-20T07:36:50;0.80;99.90
35277;DHT22;21401;50.878;8.050;2022-11-20T07:39:16;1.00;99.90
35277;DHT22;21401;50.878;8.050;2022-11-20T07:41:42;1.00;99.90
35277;DHT22;21401;50.878;8.050;2022-11-20T07:44:07;1.00;99.90
35277;DHT22;21401;50.878;8.050;2022-11-20T07:46:33;1.00;99.90
35277;DHT22;21401;50.878;8.050;2022-11-20T07:48:59;1.00;99.90
35277;DHT22;21401;50.878;8.050;2022-11-20T07:51:29;0.90;99.90
35277;DHT22;21401;50.878;8.050;2022-11-20T07:53:55;0.90;99.90
35277;DHT22;21401;50.878;8.050;2022-11-20T07:56:21;1.00;99.90
35277;DHT22;21401;50.878;8.050;2022-11-20T07:58:46;1.10;99.90
35277;DHT22;21401;50.878;8.050;2022-11-20T08:01:12;1.20;99.90
35277;DHT22;21401;50.878;8.050;2022-11-20T08:03:38;1.20;99.90
35277;DHT22;21401;50.878;8.050;2022-11-20T08:06:04;1.10;99.90
35277;DHT22;21401;50.878;8.050;2022-11-20T08:08:30;1.20;99.90
35277;DHT22;21401;50.878;8.050;2022-11-20T08:10:57;1.30;99.90
35277;DHT22;21401;50.878;8.050;2022-11-20T08:13:43;1.30;99.90
35277;DHT22;21401;50.878;8.050;2022-11-20T08:16:27;1.30;99.90
35277;DHT22;21401;50.878;8.050;2022-11-20T08:18:53;1.40;99.90
35277;DHT22;21401;50.878;8.050;2022-11-20T08:21:21;1.40;99.90
35277;DHT22;21401;50.878;8.050;2022-11-20T08:23:50;1.50;99.90
35277;DHT22;21401;50.878;8.050;2022-11-20T08:26:16;1.50;99.90
35277;DHT22;21401;50.878;8.050;2022-11-20T08:28:42;1.50;99.90
35277;DHT22;21401;50.878;8.050;2022-11-20T08:31:08;1.60;99.90
35277;DHT22;21401;50.878;8.050;2022-11-20T08:33:35;1.50;99.90
35277;DHT22;21401;50.878;8.050;2022-11-20T08:36:02;1.60;99.90
35277;DHT22;21401;50.878;8.050;2022-11-20T08:38:27;1.50;99.90
35277;DHT22;21401;50.878;8.050;2022-11-20T08:40:59;1.50;99.90
35277;DHT22;21401;50.878;8.050;2022-11-20T08:43:45;1.50;99.90
35277;DHT22;21401;50.878;8.050;2022-11-20T08:46:11;1.60;99.90
35277;DHT22;21401;50.878;8.050;2022-11-20T08:48:36;1.60;99.90
35277;DHT22;21401;50.878;8.050;2022-11-20T08:51:02;1.60;99.90
35277;DHT22;21401;50.878;8.050;2022-11-20T08:53:28;1.70;99.90
35277;DHT22;21401;50.878;8.050;2022-11-20T08:55:54;1.80;99.90
35277;DHT22;21401;50.878;8.050;2022-11-20T08:58:20;1.80;99.90
35277;DHT22;21401;50.878;8.050;2022-11-20T09:00:46;1.80;99.90
35277;DHT22;21401;50.878;8.050;2022-11-20T09:03:11;1.80;99.90
35277;DHT22;21401;50.878;8.050;2022-11-20T09:05:38;1.90;99.90
35277;DHT22;21401;50.878;8.050;2022-11-20T09:08:05;2.00;99.90
35277;DHT22;21401;50.878;8.050;2022-11-20T09:10:31;2.10;99.90
35277;DHT22;21401;50.878;8.050;2022-11-20T09:12:58;2.20;99.90
35277;DHT22;21401;50.878;8.050;2022-11-20T09:15:31;2.30;99.90
35277;DHT22;21401;50.878;8.050;2022-11-20T09:17:59;2.50;99.90
35277;DHT22;21401;50.878;8.050;2022-11-20T09:20:26;2.40;99.90
35277;DHT22;21401;50.878;8.050;2022-11-20T09:22:52;2.40;99.90
35277;DHT22;21401;50.878;8.050;2022-11-20T09:25:18;2.40;99.90
35277;DHT22;21401;50.878;8.050;2022-11-20T09:27:44;2.40;99.90
35277;DHT22;21401;50.878;8.050;2022-11-20T09:30:15;2.40;99.90
35277;DHT22;21401;50.878;8.050;2022-11-20T09:32:42;2.30;99.90
35277;DHT22;21401;50.878;8.050;2022-11-20T09:35:10;2.40;99.90
35277;DHT22;21401;50.878;8.050;2022-11-20T09:37:36;2.40;99.90
35277;DHT22;21401;50.878;8.050;2022-11-20T09:40:03;2.40;99.90
35277;DHT22;21401;50.878;8.050;2022-11-20T09:56:53;2.40;99.90
35277;DHT22;21401;50.878;8.050;2022-11-20T10:05:04;2.70;99.90
35277;DHT22;21401;50.878;8.050;2022-11-20T10:08:00;2.70;99.90
35277;DHT22;21401;50.878;8.050;2022-11-20T10:10:39;2.70;99.90
35277;DHT22;21401;50.878;8.050;2022-11-20T10:18:42;2.60;99.90
35277;DHT22;21401;50.878;8.050;2022-11-20T10:21:29;2.80;99.90
35277;DHT22;21401;50.878;8.050;2022-11-20T10:24:20;2.70;99.90
35277;DHT22;21401;50.878;8.050;2022-11-20T10:29:32;2.80;99.90
35277;DHT22;21401;50.878;8.050;2022-11-20T10:32:07;3.00;99.90
35277;DHT22;21401;50.878;8.050;2022-11-20T10:34:59;3.00;99.90
35277;DHT22;21401;50.878;8.050;2022-11-20T10:37:27;3.10;99.90
35277;DHT22;21401;50.878;8.050;2022-11-20T10:40:14;3.50;99.90
35277;DHT22;21401;50.878;8.050;2022-11-20T10:42:46;3.60;99.90
35277;DHT22;21401;50.878;8.050;2022-11-20T10:50:48;3.10;99.90
35277;DHT22;21401;50.878;8.050;2022-11-20T10:53:45;3.20;99.90
35277;DHT22;21401;50.878;8.050;2022-11-20T10:56:19;3.50;99.90
35277;DHT22;21401;50.878;8.050;2022-11-20T11:01:47;3.30;99.90
35277;DHT22;21401;50.878;8.050;2022-11-20T11:04:37;3.30;99.90
35277;DHT22;21401;50.878;8.050;2022-11-20T11:09:48;3.30;99.90
35277;DHT22;21401;50.878;8.050;2022-11-20T11:12:14;3.10;99.90
35277;DHT22;21401;50.878;8.050;2022-11-20T11:14:51;3.10;99.90
35277;DHT22;21401;50.878;8.050;2022-11-20T11:17:35;3.20;99.90
35277;DHT22;21401;50.878;8.050;2022-11-20T11:20:25;3.20;99.90
35277;DHT22;21401;50.878;8.050;2022-11-20T11:22:53;3.20;99.90
35277;DHT22;21401;50.878;8.050;2022-11-20T11:27:55;3.30;99.90
35277;DHT22;21401;50.878;8.050;2022-11-20T11:30:26;3.20;99.90
35277;DHT22;21401;50.878;8.050;2022-11-20T11:33:06;3.30;99.90
35277;DHT22;21401;50.878;8.050;2022-11-20T11:35:43;3.40;99.90
35277;DHT22;21401;50.878;8.050;2022-11-20T11:38:17;3.30;99.90
35277;DHT22;21401;50.878;8.050;2022-11-20T11:40:46;3.30;99.90
35277;DHT22;21401;50.878;8.050;2022-11-20T11:43:22;3.40;99.90
35277;DHT22;21401;50.878;8.050;2022-11-20T11:46:34;3.50;99.90
35277;DHT22;21401;50.878;8.050;2022-11-20T11:49:17;3.60;99.90
35277;DHT22;21401;50.878;8.050;2022-11-20T11:52:00;3.70;99.90
35277;DHT22;21401;50.878;8.050;2022-11-20T12:05:30;3.70;99.90
35277;DHT22;21401;50.878;8.050;2022-11-20T12:08:05;3.70;99.90
35277;DHT22;21401;50.878;8.050;2022-11-20T12:11:13;3.70;99.90
35277;DHT22;21401;50.878;8.050;2022-11-20T12:14:04;3.50;99.90
35277;DHT22;21401;50.878;8.050;2022-11-20T12:16:37;3.40;99.90
35277;DHT22;21401;50.878;8.050;2022-11-20T12:19:10;3.60;99.90
35277;DHT22;21401;50.878;8.050;2022-11-20T12:30:10;3.40;99.90
35277;DHT22;21401;50.878;8.050;2022-11-20T12:35:36;3.60;99.90
35277;DHT22;21401;50.878;8.050;2022-11-20T12:50:28;3.50;99.90
35277;DHT22;21401;50.878;8.050;2022-11-20T12:53:04;3.50;99.90
35277;DHT22;21401;50.878;8.050;2022-11-20T12:55:53;3.60;99.90
35277;DHT22;21401;50.878;8.050;2022-11-20T13:07:12;3.80;99.90
35277;DHT22;21401;50.878;8.050;2022-11-20T13:09:47;3.70;99.90
35277;DHT22;21401;50.878;8.050;2022-11-20T13:12:30;3.60;99.90
35277;DHT22;21401;50.878;8.050;2022-11-20T13:18:02;3.60;99.90
35277;DHT22;21401;50.878;8.050;2022-11-20T13:20:49;3.50;99.90
35277;DHT22;21401;50.878;8.050;2022-11-20T13:23:27;3.40;99.90
35277;DHT22;21401;50.878;8.050;2022-11-20T13:26:19;3.50;99.90
35277;DHT22;21401;50.878;8.050;2022-11-20T13:29:11;3.70;99.90
35277;DHT22;21401;50.878;8.050;2022-11-20T13:31:44;3.70;99.90
35277;DHT22;21401;50.878;8.050;2022-11-20T13:34:24;3.60;99.90
35277;DHT22;21401;50.878;8.050;2022-11-20T13:37:28;3.60;99.90
35277;DHT22;21401;50.878;8.050;2022-11-20T13:40:11;3.70;99.90
35277;DHT22;21401;50.878;8.050;2022-11-20T13:42:56;3.70;99.90
35277;DHT22;21401;50.878;8.050;2022-11-20T13:45:28;3.60;99.90
35277;DHT22;21401;50.878;8.050;2022-11-20T13:47:56;3.70;99.90
35277;DHT22;21401;50.878;8.050;2022-11-20T13:53:40;3.60;99.90
35277;DHT22;21401;50.878;8.050;2022-11-20T13:58:56;3.40;99.90
35277;DHT22;21401;50.878;8.050;2022-11-20T14:01:39;3.50;99.90
35277;DHT22;21401;50.878;8.050;2022-11-20T14:04:09;3.40;99.90
35277;DHT22;21401;50.878;8.050;2022-11-20T14:06:44;3.40;99.90
35277;DHT22;21401;50.878;8.050;2022-11-20T14:09:13;3.40;99.90
35277;DHT22;21401;50.878;8.050;2022-11-20T14:11:49;3.40;99.90
35277;DHT22;21401;50.878;8.050;2022-11-20T14:14:17;3.40;99.90
35277;DHT22;21401;50.878;8.050;2022-11-20T14:16:44;3.40;99.90
35277;DHT22;21401;50.878;8.050;2022-11-20T14:19:37;3.40;99.90
35277;DHT22;21401;50.878;8.050;2022-11-20T14:22:10;3.40;99.90
35277;DHT22;21401;50.878;8.050;2022-11-20T14:24:44;3.50;99.90
35277;DHT22;21401;50.878;8.050;2022-11-20T14:27:18;3.50;99.90
35277;DHT22;21401;50.878;8.050;2022-11-20T14:29:50;3.40;99.90
35277;DHT22;21401;50.878;8.050;2022-11-20T14:32:25;3.40;99.90
35277;DHT22;21401;50.878;8.050;2022-11-20T14:34:52;3.50;99.90
35277;DHT22;21401;50.878;8.050;2022-11-20T14:37:23;3.50;99.90
35277;DHT22;21401;50.878;8.050;2022-11-20T14:39:53;3.50;99.90
35277;DHT22;21401;50.878;8.050;2022-11-20T14:42:25;3.50;99.90
35277;DHT22;21401;50.878;8.050;2022-11-20T14:44:55;3.60;99.90
35277;DHT22;21401;50.878;8.050;2022-11-20T14:47:40;3.50;99.90
35277;DHT22;21401;50.878;8.050;2022-11-20T14:50:14;3.50;99.90
35277;DHT22;21401;50.878;8.050;2022-11-20T14:52:55;3.60;99.90
35277;DHT22;21401;50.878;8.050;2022-11-20T14:55:33;3.60;99.90
35277;DHT22;21401;50.878;8.050;2022-11-20T14:58:06;3.60;99.90
35277;DHT22;21401;50.878;8.050;2022-11-20T15:00:33;3.50;99.90
35277;DHT22;21401;50.878;8.050;2022-11-20T15:03:30;3.60;99.90
35277;DHT22;21401;50.878;8.050;2022-11-20T15:05:57;3.50;99.90
35277;DHT22;21401;50.878;8.050;2022-11-20T15:08:26;3.60;99.90
35277;DHT22;21401;50.878;8.050;2022-11-20T15:10:52;3.60;99.90
35277;DHT22;21401;50.878;8.050;2022-11-20T15:13:29;3.60;99.90
35277;DHT22;21401;50.878;8.050;2022-11-20T15:15:57;3.50;99.90
35277;DHT22;21401;50.878;8.050;2022-11-20T15:18:38;3.50;99.90
35277;DHT22;21401;50.878;8.050;2022-11-20T15:21:11;3.60;99.90
35277;DHT22;21401;50.878;8.050;2022-11-20T15:23:37;3.60;99.90
35277;DHT22;21401;50.878;8.050;2022-11-20T15:26:06;3.70;99.90
35277;DHT22;21401;50.878;8.050;2022-11-20T15:28:39;3.60;99.90
35277;DHT22;21401;50.878;8.050;2022-11-20T15:31:09;3.60;99.90
35277;DHT22;21401;50.878;8.050;2022-11-20T15:33:38;3.70;99.90
35277;DHT22;21401;50.878;8.050;2022-11-20T15:36:10;3.70;99.90
35277;DHT22;21401;50.878;8.050;2022-11-20T15:38:38;3.70;99.90
35277;DHT22;21401;50.878;8.050;2022-11-20T15:41:07;3.70;99.90
35277;DHT22;21401;50.878;8.050;2022-11-20T15:43:33;3.70;99.90
35277;DHT22;21401;50.878;8.050;2022-11-20T15:46:26;3.70;99.90
35277;DHT22;21401;50.878;8.050;2022-11-20T15:48:58;3.70;99.90
35277;DHT22;21401;50.878;8.050;2022-11-20T15:51:35;3.70;99.90
35277;DHT22;21401;50.878;8.050;2022-11-20T15:54:18;3.70;99.90
35277;DHT22;21401;50.878;8.050;2022-11-20T15:56:52;3.70;99.90
35277;DHT22;21401;50.878;8.050;2022-11-20T15:59:18;3.70;99.90
35277;DHT22;21401;50.878;8.050;2022-11-20T16:01:44;3.70;99.90
35277;DHT22;21401;50.878;8.050;2022-11-20T16:04:15;3.70;99.90
35277;DHT22;21401;50.878;8.050;2022-11-20T16:06:42;3.70;99.90
35277;DHT22;21401;50.878;8.050;2022-11-20T16:09:09;3.80;99.90
35277;DHT22;21401;50.878;8.050;2022-11-20T16:11:42;3.80;99.90
35277;DHT22;21401;50.878;8.050;2022-11-20T16:14:27;3.80;99.90
35277;DHT22;21401;50.878;8.050;2022-11-20T16:17:18;3.80;99.90
35277;DHT22;21401;50.878;8.050;2022-11-20T16:20:10;3.80;99.90
35277;DHT22;21401;50.878;8.050;2022-11-20T16:22:36;3.80;99.90
35277;DHT22;21401;50.878;8.050;2022-11-20T16:25:21;3.80;99.90
35277;DHT22;21401;50.878;8.050;2022-11-20T16:27:49;3.80;99.90
35277;DHT22;21401;50.878;8.050;2022-11-20T16:30:57;3.90;99.90
35277;DHT22;21401;50.878;8.050;2022-11-20T16:33:53;3.90;99.90
35277;DHT22;21401;50.878;8.050;2022-11-20T16:36:22;3.80;99.90
35277;DHT22;21401;50.878;8.050;2022-11-20T16:38:55;3.80;99.90
35277;DHT22;21401;50.878;8.050;2022-11-20T16:41:22;3.80;99.90
35277;DHT22;21401;50.878;8.050;2022-11-20T16:43:56;3.90;99.90
35277;DHT22;21401;50.878;8.050;2022-11-20T16:46:29;3.90;99.90
35277;DHT22;21401;50.878;8.050;2022-11-20T16:49:21;3.80;99.90
35277;DHT22;21401;50.878;8.050;2022-11-20T16:52:05;3.70;99.90
35277;DHT22;21401;50.878;8.050;2022-11-20T16:54:32;3.80;99.90
35277;DHT22;21401;50.878;8.050;2022-11-20T16:57:08;3.90;99.90
35277;DHT22;21401;50.878;8.050;2022-11-20T16:59:57;4.10;99.90
35277;DHT22;21401;50.878;8.050;2022-11-20T17:09:16;4.30;99.90
35277;DHT22;21401;50.878;8.050;2022-11-20T17:12:21;4.40;99.90
35277;DHT22;21401;50.878;8.050;2022-11-20T17:15:25;4.40;99.90
35277;DHT22;21401;50.878;8.050;2022-11-20T17:21:22;4.40;99.90
35277;DHT22;21401;50.878;8.050;2022-11-20T17:24:12;4.50;99.90
35277;DHT22;21401;50.878;8.050;2022-11-20T17:27:14;4.50;99.90
35277;DHT22;21401;50.878;8.050;2022-11-20T17:29:55;4.60;99.90
35277;DHT22;21401;50.878;8.050;2022-11-20T17:33:04;4.60;99.90
35277;DHT22;21401;50.878;8.050;2022-11-20T17:36:14;4.50;99.90
35277;DHT22;21401;50.878;8.050;2022-11-20T17:41:54;4.50;99.90
35277;DHT22;21401;50.878;8.050;2022-11-20T17:44:45;4.50;99.90
35277;DHT22;21401;50.878;8.050;2022-11-20T17:47:49;4.50;99.90
35277;DHT22;21401;50.878;8.050;2022-11-20T17:50:27;4.40;99.90
35277;DHT22;21401;50.878;8.050;2022-11-20T17:53:13;4.40;99.90
35277;DHT22;21401;50.878;8.050;2022-11-20T17:55:39;4.40;99.90
35277;DHT22;21401;50.878;8.050;2022-11-20T17:58:27;4.40;99.90
35277;DHT22;21401;50.878;8.050;2022-11-20T18:00:52;4.30;99.90
35277;DHT22;21401;50.878;8.050;2022-11-20T18:03:19;4.30;99.90
35277;DHT22;21401;50.878;8.050;2022-11-20T18:05:44;4.30;99.90
35277;DHT22;21401;50.878;8.050;2022-11-20T18:08:10;4.30;99.90
35277;DHT22;21401;50.878;8.050;2022-11-20T18:10:36;4.20;99.90
35277;DHT22;21401;50.878;8.050;2022-11-20T18:13:01;4.30;99.90